sensor_id;sensor_type;location;lat;lon;timestamp;P1;durP1;ratioP1;P2;durP2;ratioP2
20792;SDS011;10556;-33.662;151.094;2022-08-19T00:01:34;0.10;;;0.10;;
20792;SDS011;10556;-33.662;151.094;2022-08-19T00:06:38;0.10;;;0.10;;
20792;SDS011;10556;-33.662;151.094;2022-08-19T00:11:39;0.20;;;0.20;;
20792;SDS011;10556;-33.662;151.094;2022-08-19T00:16:41;0.53;;;0.10;;
20792;SDS011;10556;-33.662;151.094;2022-08-19T00:21:44;0.70;;;0.20;;
20792;SDS011;10556;-33.662;151.094;2022-08-19T00:26:46;0.40;;;0.20;;
20792;SDS011;10556;-33.662;151.094;2022-08-19T00:31:47;0.80;;;0.30;;
20792;SDS011;10556;-33.662;151.094;2022-08-19T00:36:50;1.13;;;0.23;;
20792;SDS011;10556;-33.662;151.094;2022-08-19T00:41:52;1.57;;;0.40;;
20792;SDS011;10556;-33.662;151.094;2022-08-19T00:46:53;0.63;;;0.40;;
20792;SDS011;10556;-33.662;151.094;2022-08-19T00:51:57;1.40;;;0.90;;
20792;SDS011;10556;-33.662;151.094;2022-08-19T00:57:01;1.63;;;0.53;;
20792;SDS011;10556;-33.662;151.094;2022-08-19T01:02:03;0.20;;;0.20;;
20792;SDS011;10556;-33.662;151.094;2022-08-19T01:07:06;0.10;;;0.10;;
20792;SDS011;10556;-33.662;151.094;2022-08-19T01:12:08;0.20;;;0.17;;
20792;SDS011;10556;-33.662;151.094;2022-08-19T01:17:13;0.70;;;0.20;;
20792;SDS011;10556;-33.662;151.094;2022-08-19T01:22:18;0.40;;;0.30;;
20792;SDS011;10556;-33.662;151.094;2022-08-19T01:27:22;0.10;;;0.10;;
20792;SDS011;10556;-33.662;151.094;2022-08-19T01:32:23;0.50;;;0.20;;
20792;SDS011;10556;-33.662;151.094;2022-08-19T01:37:25;1.40;;;0.23;;
20792;SDS011;10556;-33.662;151.094;2022-08-19T01:42:28;0.60;;;0.30;;
20792;SDS011;10556;-33.662;151.094;2022-08-19T01:47:29;0.20;;;0.20;;
20792;SDS011;10556;-33.662;151.094;2022-08-19T01:52:31;0.43;;;0.20;;
20792;SDS011;10556;-33.662;151.094;2022-08-19T01:57:34;0.20;;;0.20;;
20792;SDS011;10556;-33.662;151.094;2022-08-19T02:02:35;0.10;;;0.10;;
20792;SDS011;10556;-33.662;151.094;2022-08-19T02:07:37;0.30;;;0.10;;
20792;SDS011;10556;-33.662;151.094;2022-08-19T02:12:41;0.23;;;0.10;;
20792;SDS011;10556;-33.662;151.094;2022-08-19T02:17:42;0.60;;;0.30;;
20792;SDS011;10556;-33.662;151.094;2022-08-19T02:22:43;0.33;;;0.30;;
20792;SDS011;10556;-33.662;151.094;2022-08-19T02:27:48;0.77;;;0.50;;
20792;SDS011;10556;-33.662;151.094;2022-08-19T02:32:49;0.50;;;0.30;;
20792;SDS011;10556;-33.662;151.094;2022-08-19T02:37:51;1.07;;;0.40;;
20792;SDS011;10556;-33.662;151.094;2022-08-19T02:42:54;0.77;;;0.30;;
20792;SDS011;10556;-33.662;151.094;2022-08-19T02:47:55;0.53;;;0.20;;
20792;SDS011;10556;-33.662;151.094;2022-08-19T02:52:57;0.43;;;0.10;;
20792;SDS011;10556;-33.662;151.094;2022-08-19T02:58:00;0.30;;;0.10;;
20792;SDS011;10556;-33.662;151.094;2022-08-19T03:03:01;0.73;;;0.20;;
20792;SDS011;10556;-33.662;151.094;2022-08-19T03:08:03;0.30;;;0.17;;
20792;SDS011;10556;-33.662;151.094;2022-08-19T03:13:06;0.10;;;0.10;;
20792;SDS011;10556;-33.662;151.094;2022-08-19T03:18:07;0.17;;;0.10;;
20792;SDS011;10556;-33.662;151.094;2022-08-19T03:23:09;0.37;;;0.20;;
20792;SDS011;10556;-33.662;151.094;2022-08-19T03:28:12;0.17;;;0.10;;
20792;SDS011;10556;-33.662;151.094;2022-08-19T03:33:14;0.30;;;0.20;;
20792;SDS011;10556;-33.662;151.094;2022-08-19T03:38:15;0.37;;;0.20;;
20792;SDS011;10556;-33.662;151.094;2022-08-19T03:43:18;0.43;;;0.10;;
20792;SDS011;10556;-33.662;151.094;2022-08-19T03:48:20;0.03;;;0.03;;
20792;SDS011;10556;-33.662;151.094;2022-08-19T03:53:21;0.20;;;0.10;;
20792;SDS011;10556;-33.662;151.094;2022-08-19T03:58:25;0.10;;;0.10;;
20792;SDS011;10556;-33.662;151.094;2022-08-19T04:03:26;0.30;;;0.20;;
20792;SDS011;10556;-33.662;151.094;2022-08-19T04:08:27;0.07;;;0.07;;
20792;SDS011;10556;-33.662;151.094;2022-08-19T04:13:30;0.10;;;0.10;;
20792;SDS011;10556;-33.662;151.094;2022-08-19T04:18:32;0.20;;;0.00;;
20792;SDS011;10556;-33.662;151.094;2022-08-19T04:23:34;1.33;;;0.10;;
20792;SDS011;10556;-33.662;151.094;2022-08-19T04:28:37;0.83;;;0.67;;
20792;SDS011;10556;-33.662;151.094;2022-08-19T04:33:39;2.73;;;2.43;;
20792;SDS011;10556;-33.662;151.094;2022-08-19T04:38:40;1.40;;;1.30;;
20792;SDS011;10556;-33.662;151.094;2022-08-19T04:43:44;0.70;;;0.57;;
20792;SDS011;10556;-33.662;151.094;2022-08-19T04:48:46;0.50;;;0.50;;
20792;SDS011;10556;-33.662;151.094;2022-08-19T04:53:47;0.30;;;0.30;;
20792;SDS011;10556;-33.662;151.094;2022-08-19T04:58:50;0.63;;;0.30;;
20792;SDS011;10556;-33.662;151.094;2022-08-19T05:03:51;0.10;;;0.10;;
20792;SDS011;10556;-33.662;151.094;2022-08-19T05:08:53;0.27;;;0.10;;
20792;SDS011;10556;-33.662;151.094;2022-08-19T05:13:56;0.13;;;0.10;;
20792;SDS011;10556;-33.662;151.094;2022-08-19T05:18:57;0.33;;;0.20;;
20792;SDS011;10556;-33.662;151.094;2022-08-19T05:23:59;0.50;;;0.10;;
20792;SDS011;10556;-33.662;151.094;2022-08-19T05:29:02;1.33;;;0.30;;
20792;SDS011;10556;-33.662;151.094;2022-08-19T05:34:04;1.07;;;0.20;;
20792;SDS011;10556;-33.662;151.094;2022-08-19T05:39:06;1.07;;;0.70;;
20792;SDS011;10556;-33.662;151.094;2022-08-19T05:44:09;1.17;;;0.40;;
20792;SDS011;10556;-33.662;151.094;2022-08-19T05:49:11;0.53;;;0.50;;
20792;SDS011;10556;-33.662;151.094;2022-08-19T05:54:12;1.33;;;1.13;;
20792;SDS011;10556;-33.662;151.094;2022-08-19T05:59:15;1.67;;;1.00;;
20792;SDS011;10556;-33.662;151.094;2022-08-19T06:04:17;0.77;;;0.40;;
20792;SDS011;10556;-33.662;151.094;2022-08-19T06:09:19;1.50;;;0.60;;
20792;SDS011;10556;-33.662;151.094;2022-08-19T06:14:24;0.67;;;0.40;;
20792;SDS011;10556;-33.662;151.094;2022-08-19T06:19:26;0.50;;;0.40;;
20792;SDS011;10556;-33.662;151.094;2022-08-19T06:24:28;1.20;;;0.70;;
20792;SDS011;10556;-33.662;151.094;2022-08-19T06:29:31;0.87;;;0.40;;
20792;SDS011;10556;-33.662;151.094;2022-08-19T06:34:33;0.40;;;0.40;;
20792;SDS011;10556;-33.662;151.094;2022-08-19T06:39:36;0.40;;;0.30;;
20792;SDS011;10556;-33.662;151.094;2022-08-19T06:44:40;0.27;;;0.27;;
20792;SDS011;10556;-33.662;151.094;2022-08-19T06:49:41;2.87;;;1.13;;
20792;SDS011;10556;-33.662;151.094;2022-08-19T06:54:43;2.97;;;1.87;;
20792;SDS011;10556;-33.662;151.094;2022-08-19T06:59:46;6.10;;;4.53;;
20792;SDS011;10556;-33.662;151.094;2022-08-19T07:04:47;0.63;;;0.40;;
20792;SDS011;10556;-33.662;151.094;2022-08-19T07:09:49;2.77;;;1.50;;
20792;SDS011;10556;-33.662;151.094;2022-08-19T07:14:52;7.80;;;5.17;;
20792;SDS011;10556;-33.662;151.094;2022-08-19T07:19:53;3.73;;;2.23;;
20792;SDS011;10556;-33.662;151.094;2022-08-19T07:24:55;2.40;;;1.53;;
20792;SDS011;10556;-33.662;151.094;2022-08-19T07:29:58;1.97;;;0.60;;
20792;SDS011;10556;-33.662;151.094;2022-08-19T07:34:59;5.90;;;3.80;;
20792;SDS011;10556;-33.662;151.094;2022-08-19T07:40:01;3.60;;;2.10;;
20792;SDS011;10556;-33.662;151.094;2022-08-19T07:45:04;2.30;;;1.40;;
20792;SDS011;10556;-33.662;151.094;2022-08-19T07:50:06;5.93;;;2.67;;
20792;SDS011;10556;-33.662;151.094;2022-08-19T07:55:09;3.03;;;2.77;;
20792;SDS011;10556;-33.662;151.094;2022-08-19T08:00:13;2.77;;;2.07;;
20792;SDS011;10556;-33.662;151.094;2022-08-19T08:05:15;3.97;;;3.27;;
20792;SDS011;10556;-33.662;151.094;2022-08-19T08:10:16;2.40;;;2.10;;
20792;SDS011;10556;-33.662;151.094;2022-08-19T08:15:19;1.63;;;1.07;;
20792;SDS011;10556;-33.662;151.094;2022-08-19T08:20:20;1.20;;;0.73;;
20792;SDS011;10556;-33.662;151.094;2022-08-19T08:25:23;2.67;;;1.40;;
20792;SDS011;10556;-33.662;151.094;2022-08-19T08:30:26;0.63;;;0.63;;
20792;SDS011;10556;-33.662;151.094;2022-08-19T08:35:28;0.60;;;0.40;;
20792;SDS011;10556;-33.662;151.094;2022-08-19T08:40:30;4.73;;;2.97;;
20792;SDS011;10556;-33.662;151.094;2022-08-19T08:45:34;3.83;;;1.13;;
20792;SDS011;10556;-33.662;151.094;2022-08-19T08:50:38;1.70;;;0.57;;
20792;SDS011;10556;-33.662;151.094;2022-08-19T08:55:42;1.63;;;0.40;;
20792;SDS011;10556;-33.662;151.094;2022-08-19T09:00:47;0.20;;;0.20;;
20792;SDS011;10556;-33.662;151.094;2022-08-19T09:05:52;0.73;;;0.30;;
20792;SDS011;10556;-33.662;151.094;2022-08-19T09:10:56;0.80;;;0.40;;
20792;SDS011;10556;-33.662;151.094;2022-08-19T09:16:00;0.90;;;0.50;;
20792;SDS011;10556;-33.662;151.094;2022-08-19T09:21:03;1.10;;;0.33;;
20792;SDS011;10556;-33.662;151.094;2022-08-19T09:26:07;0.63;;;0.30;;
20792;SDS011;10556;-33.662;151.094;2022-08-19T09:31:10;0.90;;;0.30;;
20792;SDS011;10556;-33.662;151.094;2022-08-19T09:36:12;1.03;;;0.40;;
20792;SDS011;10556;-33.662;151.094;2022-08-19T09:41:15;0.87;;;0.30;;
20792;SDS011;10556;-33.662;151.094;2022-08-19T09:46:18;3.03;;;0.47;;
20792;SDS011;10556;-33.662;151.094;2022-08-19T09:51:20;1.33;;;0.43;;
20792;SDS011;10556;-33.662;151.094;2022-08-19T09:56:22;1.20;;;0.70;;
20792;SDS011;10556;-33.662;151.094;2022-08-19T10:01:25;0.87;;;0.40;;
20792;SDS011;10556;-33.662;151.094;2022-08-19T10:06:28;1.73;;;0.50;;
20792;SDS011;10556;-33.662;151.094;2022-08-19T10:11:30;0.90;;;0.50;;
20792;SDS011;10556;-33.662;151.094;2022-08-19T10:16:33;0.90;;;0.50;;
20792;SDS011;10556;-33.662;151.094;2022-08-19T10:21:35;0.87;;;0.50;;
20792;SDS011;10556;-33.662;151.094;2022-08-19T10:26:37;4.13;;;1.00;;
20792;SDS011;10556;-33.662;151.094;2022-08-19T10:31:41;0.93;;;0.63;;
20792;SDS011;10556;-33.662;151.094;2022-08-19T10:36:42;1.80;;;0.70;;
20792;SDS011;10556;-33.662;151.094;2022-08-19T10:41:43;2.17;;;0.80;;
20792;SDS011;10556;-33.662;151.094;2022-08-19T10:46:47;3.67;;;0.73;;
20792;SDS011;10556;-33.662;151.094;2022-08-19T10:51:48;1.77;;;0.90;;
20792;SDS011;10556;-33.662;151.094;2022-08-19T10:56:49;3.80;;;0.93;;
20792;SDS011;10556;-33.662;151.094;2022-08-19T11:01:53;6.20;;;2.37;;
20792;SDS011;10556;-33.662;151.094;2022-08-19T11:06:55;3.37;;;2.27;;
20792;SDS011;10556;-33.662;151.094;2022-08-19T11:11:57;4.47;;;3.00;;
20792;SDS011;10556;-33.662;151.094;2022-08-19T11:17:00;3.60;;;2.90;;
20792;SDS011;10556;-33.662;151.094;2022-08-19T11:22:01;2.60;;;1.60;;
20792;SDS011;10556;-33.662;151.094;2022-08-19T11:27:04;3.83;;;1.53;;
20792;SDS011;10556;-33.662;151.094;2022-08-19T11:32:08;3.27;;;0.93;;
20792;SDS011;10556;-33.662;151.094;2022-08-19T11:37:10;4.97;;;2.70;;
20792;SDS011;10556;-33.662;151.094;2022-08-19T11:42:11;14.97;;;10.03;;
20792;SDS011;10556;-33.662;151.094;2022-08-19T11:47:14;13.90;;;9.40;;
20792;SDS011;10556;-33.662;151.094;2022-08-19T11:52:16;6.93;;;3.50;;
20792;SDS011;10556;-33.662;151.094;2022-08-19T11:57:17;14.47;;;11.70;;
20792;SDS011;10556;-33.662;151.094;2022-08-19T12:02:20;6.93;;;6.00;;
20792;SDS011;10556;-33.662;151.094;2022-08-19T12:07:21;4.43;;;1.50;;
20792;SDS011;10556;-33.662;151.094;2022-08-19T12:12:23;1.10;;;0.70;;
20792;SDS011;10556;-33.662;151.094;2022-08-19T12:17:26;2.00;;;0.60;;
20792;SDS011;10556;-33.662;151.094;2022-08-19T12:22:27;1.20;;;0.53;;
20792;SDS011;10556;-33.662;151.094;2022-08-19T12:27:29;4.17;;;0.70;;
20792;SDS011;10556;-33.662;151.094;2022-08-19T12:32:32;2.07;;;0.90;;
20792;SDS011;10556;-33.662;151.094;2022-08-19T12:37:33;4.03;;;1.03;;
20792;SDS011;10556;-33.662;151.094;2022-08-19T12:42:35;1.27;;;0.93;;
20792;SDS011;10556;-33.662;151.094;2022-08-19T12:47:38;1.97;;;0.63;;
20792;SDS011;10556;-33.662;151.094;2022-08-19T12:52:39;2.23;;;0.70;;
20792;SDS011;10556;-33.662;151.094;2022-08-19T12:57:41;2.30;;;0.80;;
20792;SDS011;10556;-33.662;151.094;2022-08-19T13:02:44;1.50;;;1.00;;
20792;SDS011;10556;-33.662;151.094;2022-08-19T13:07:46;1.53;;;0.90;;
20792;SDS011;10556;-33.662;151.094;2022-08-19T13:12:47;2.33;;;0.70;;
20792;SDS011;10556;-33.662;151.094;2022-08-19T13:17:51;2.27;;;0.90;;
20792;SDS011;10556;-33.662;151.094;2022-08-19T13:22:53;1.83;;;0.77;;
20792;SDS011;10556;-33.662;151.094;2022-08-19T13:27:54;1.37;;;0.90;;
20792;SDS011;10556;-33.662;151.094;2022-08-19T13:32:57;1.23;;;0.70;;
20792;SDS011;10556;-33.662;151.094;2022-08-19T13:37:59;1.93;;;0.80;;
20792;SDS011;10556;-33.662;151.094;2022-08-19T13:43:00;2.03;;;0.70;;
20792;SDS011;10556;-33.662;151.094;2022-08-19T13:48:05;4.13;;;0.60;;
20792;SDS011;10556;-33.662;151.094;2022-08-19T13:53:07;0.83;;;0.53;;
20792;SDS011;10556;-33.662;151.094;2022-08-19T13:58:09;1.67;;;0.63;;
20792;SDS011;10556;-33.662;151.094;2022-08-19T14:03:12;4.30;;;1.10;;
20792;SDS011;10556;-33.662;151.094;2022-08-19T14:08:13;5.50;;;1.60;;
20792;SDS011;10556;-33.662;151.094;2022-08-19T14:13:16;1.10;;;0.97;;
20792;SDS011;10556;-33.662;151.094;2022-08-19T14:18:19;1.47;;;0.70;;
20792;SDS011;10556;-33.662;151.094;2022-08-19T14:23:21;2.50;;;0.70;;
20792;SDS011;10556;-33.662;151.094;2022-08-19T14:28:22;2.40;;;0.90;;
20792;SDS011;10556;-33.662;151.094;2022-08-19T14:33:25;0.97;;;0.50;;
20792;SDS011;10556;-33.662;151.094;2022-08-19T14:38:27;1.40;;;0.63;;
20792;SDS011;10556;-33.662;151.094;2022-08-19T14:43:28;2.53;;;0.50;;
20792;SDS011;10556;-33.662;151.094;2022-08-19T14:48:31;3.17;;;0.50;;
20792;SDS011;10556;-33.662;151.094;2022-08-19T14:53:33;2.07;;;0.63;;
20792;SDS011;10556;-33.662;151.094;2022-08-19T14:58:34;1.97;;;0.80;;
20792;SDS011;10556;-33.662;151.094;2022-08-19T15:03:38;4.67;;;0.80;;
20792;SDS011;10556;-33.662;151.094;2022-08-19T15:08:40;3.07;;;1.23;;
20792;SDS011;10556;-33.662;151.094;2022-08-19T15:13:42;2.23;;;0.70;;
20792;SDS011;10556;-33.662;151.094;2022-08-19T15:18:45;1.40;;;0.70;;
20792;SDS011;10556;-33.662;151.094;2022-08-19T15:23:47;2.13;;;0.83;;
20792;SDS011;10556;-33.662;151.094;2022-08-19T15:28:48;1.93;;;0.50;;
20792;SDS011;10556;-33.662;151.094;2022-08-19T15:33:52;0.83;;;0.40;;
20792;SDS011;10556;-33.662;151.094;2022-08-19T15:38:53;1.03;;;0.50;;
20792;SDS011;10556;-33.662;151.094;2022-08-19T15:43:55;2.00;;;0.57;;
20792;SDS011;10556;-33.662;151.094;2022-08-19T15:48:59;2.27;;;0.50;;
20792;SDS011;10556;-33.662;151.094;2022-08-19T15:54:01;3.77;;;0.83;;
20792;SDS011;10556;-33.662;151.094;2022-08-19T15:59:03;3.27;;;0.67;;
20792;SDS011;10556;-33.662;151.094;2022-08-19T16:04:06;1.67;;;0.67;;
20792;SDS011;10556;-33.662;151.094;2022-08-19T16:09:07;1.20;;;0.30;;
20792;SDS011;10556;-33.662;151.094;2022-08-19T16:14:09;2.03;;;1.07;;
20792;SDS011;10556;-33.662;151.094;2022-08-19T16:19:12;2.17;;;0.30;;
20792;SDS011;10556;-33.662;151.094;2022-08-19T16:24:14;1.57;;;0.30;;
20792;SDS011;10556;-33.662;151.094;2022-08-19T16:29:16;3.13;;;0.33;;
20792;SDS011;10556;-33.662;151.094;2022-08-19T16:34:20;1.80;;;0.30;;
20792;SDS011;10556;-33.662;151.094;2022-08-19T16:39:21;0.70;;;0.37;;
20792;SDS011;10556;-33.662;151.094;2022-08-19T16:44:23;3.40;;;0.40;;
20792;SDS011;10556;-33.662;151.094;2022-08-19T16:49:26;0.90;;;0.37;;
20792;SDS011;10556;-33.662;151.094;2022-08-19T16:54:27;1.27;;;0.40;;
20792;SDS011;10556;-33.662;151.094;2022-08-19T16:59:29;0.50;;;0.30;;
20792;SDS011;10556;-33.662;151.094;2022-08-19T17:04:32;1.13;;;0.40;;
20792;SDS011;10556;-33.662;151.094;2022-08-19T17:09:34;3.20;;;0.43;;
20792;SDS011;10556;-33.662;151.094;2022-08-19T17:14:36;2.87;;;0.40;;
20792;SDS011;10556;-33.662;151.094;2022-08-19T17:19:39;2.70;;;0.40;;
20792;SDS011;10556;-33.662;151.094;2022-08-19T17:24:41;1.73;;;0.40;;
20792;SDS011;10556;-33.662;151.094;2022-08-19T17:29:42;1.03;;;0.50;;
20792;SDS011;10556;-33.662;151.094;2022-08-19T17:34:45;1.47;;;0.40;;
20792;SDS011;10556;-33.662;151.094;2022-08-19T17:39:47;1.20;;;0.30;;
20792;SDS011;10556;-33.662;151.094;2022-08-19T17:44:48;2.73;;;0.40;;
20792;SDS011;10556;-33.662;151.094;2022-08-19T17:49:51;5.93;;;0.43;;
20792;SDS011;10556;-33.662;151.094;2022-08-19T17:54:53;2.33;;;0.40;;
20792;SDS011;10556;-33.662;151.094;2022-08-19T17:59:55;3.40;;;0.43;;
20792;SDS011;10556;-33.662;151.094;2022-08-19T18:04:58;0.20;;;0.20;;
20792;SDS011;10556;-33.662;151.094;2022-08-19T18:10:00;1.20;;;0.40;;
20792;SDS011;10556;-33.662;151.094;2022-08-19T18:15:02;2.27;;;0.40;;
20792;SDS011;10556;-33.662;151.094;2022-08-19T18:20:07;1.23;;;0.30;;
20792;SDS011;10556;-33.662;151.094;2022-08-19T18:25:10;3.17;;;0.30;;
20792;SDS011;10556;-33.662;151.094;2022-08-19T18:30:12;2.30;;;0.40;;
20792;SDS011;10556;-33.662;151.094;2022-08-19T18:35:16;2.70;;;0.40;;
20792;SDS011;10556;-33.662;151.094;2022-08-19T18:40:18;1.23;;;0.27;;
20792;SDS011;10556;-33.662;151.094;2022-08-19T18:45:20;1.07;;;0.37;;
20792;SDS011;10556;-33.662;151.094;2022-08-19T18:50:23;1.53;;;0.20;;
20792;SDS011;10556;-33.662;151.094;2022-08-19T18:55:24;2.40;;;0.30;;
20792;SDS011;10556;-33.662;151.094;2022-08-19T19:00:26;1.80;;;0.40;;
20792;SDS011;10556;-33.662;151.094;2022-08-19T19:05:29;1.17;;;0.40;;
20792;SDS011;10556;-33.662;151.094;2022-08-19T19:10:30;2.10;;;0.50;;
20792;SDS011;10556;-33.662;151.094;2022-08-19T19:15:31;1.47;;;0.30;;
20792;SDS011;10556;-33.662;151.094;2022-08-19T19:20:34;1.27;;;0.43;;
20792;SDS011;10556;-33.662;151.094;2022-08-19T19:25:36;3.53;;;0.43;;
20792;SDS011;10556;-33.662;151.094;2022-08-19T19:30:37;2.53;;;0.30;;
20792;SDS011;10556;-33.662;151.094;2022-08-19T19:35:41;1.43;;;0.40;;
20792;SDS011;10556;-33.662;151.094;2022-08-19T19:40:42;0.97;;;0.30;;
20792;SDS011;10556;-33.662;151.094;2022-08-19T19:45:43;1.90;;;0.37;;
20792;SDS011;10556;-33.662;151.094;2022-08-19T19:50:47;2.13;;;0.40;;
20792;SDS011;10556;-33.662;151.094;2022-08-19T19:55:48;0.63;;;0.33;;
20792;SDS011;10556;-33.662;151.094;2022-08-19T20:00:50;1.20;;;0.37;;
20792;SDS011;10556;-33.662;151.094;2022-08-19T20:05:53;1.50;;;0.40;;
20792;SDS011;10556;-33.662;151.094;2022-08-19T20:10:54;1.47;;;0.40;;
20792;SDS011;10556;-33.662;151.094;2022-08-19T20:15:56;0.97;;;0.37;;
20792;SDS011;10556;-33.662;151.094;2022-08-19T20:21:00;2.17;;;0.30;;
20792;SDS011;10556;-33.662;151.094;2022-08-19T20:26:01;2.93;;;0.50;;
20792;SDS011;10556;-33.662;151.094;2022-08-19T20:31:02;1.53;;;0.43;;
20792;SDS011;10556;-33.662;151.094;2022-08-19T20:36:06;1.77;;;0.40;;
20792;SDS011;10556;-33.662;151.094;2022-08-19T20:41:07;2.80;;;0.50;;
20792;SDS011;10556;-33.662;151.094;2022-08-19T20:46:09;0.40;;;0.30;;
20792;SDS011;10556;-33.662;151.094;2022-08-19T20:51:12;0.97;;;0.20;;
20792;SDS011;10556;-33.662;151.094;2022-08-19T20:56:14;1.07;;;0.30;;
20792;SDS011;10556;-33.662;151.094;2022-08-19T21:01:15;0.70;;;0.17;;
20792;SDS011;10556;-33.662;151.094;2022-08-19T21:06:18;1.87;;;0.30;;
20792;SDS011;10556;-33.662;151.094;2022-08-19T21:11:20;2.47;;;0.20;;
20792;SDS011;10556;-33.662;151.094;2022-08-19T21:16:21;0.83;;;0.30;;
20792;SDS011;10556;-33.662;151.094;2022-08-19T21:21:24;1.27;;;0.40;;
20792;SDS011;10556;-33.662;151.094;2022-08-19T21:26:25;0.53;;;0.30;;
20792;SDS011;10556;-33.662;151.094;2022-08-19T21:31:27;0.87;;;0.37;;
20792;SDS011;10556;-33.662;151.094;2022-08-19T21:36:30;1.47;;;0.30;;
20792;SDS011;10556;-33.662;151.094;2022-08-19T21:41:32;1.07;;;0.40;;
20792;SDS011;10556;-33.662;151.094;2022-08-19T21:46:33;0.77;;;0.30;;
20792;SDS011;10556;-33.662;151.094;2022-08-19T21:51:36;1.10;;;0.27;;
20792;SDS011;10556;-33.662;151.094;2022-08-19T21:56:38;2.63;;;1.00;;
20792;SDS011;10556;-33.662;151.094;2022-08-19T22:01:39;6.23;;;0.73;;
20792;SDS011;10556;-33.662;151.094;2022-08-19T22:06:42;1.47;;;0.50;;
20792;SDS011;10556;-33.662;151.094;2022-08-19T22:11:44;1.03;;;0.33;;
20792;SDS011;10556;-33.662;151.094;2022-08-19T22:16:45;2.03;;;0.70;;
20792;SDS011;10556;-33.662;151.094;2022-08-19T22:21:48;2.83;;;0.33;;
20792;SDS011;10556;-33.662;151.094;2022-08-19T22:26:49;3.10;;;0.43;;
20792;SDS011;10556;-33.662;151.094;2022-08-19T22:31:51;0.83;;;0.40;;
20792;SDS011;10556;-33.662;151.094;2022-08-19T22:36:54;2.00;;;0.43;;
20792;SDS011;10556;-33.662;151.094;2022-08-19T22:41:55;2.97;;;0.40;;
20792;SDS011;10556;-33.662;151.094;2022-08-19T22:46:56;0.77;;;0.30;;
20792;SDS011;10556;-33.662;151.094;2022-08-19T22:52:00;0.50;;;0.30;;
20792;SDS011;10556;-33.662;151.094;2022-08-19T22:57:01;0.83;;;0.30;;
20792;SDS011;10556;-33.662;151.094;2022-08-19T23:02:02;2.20;;;0.40;;
20792;SDS011;10556;-33.662;151.094;2022-08-19T23:07:06;2.27;;;0.43;;
20792;SDS011;10556;-33.662;151.094;2022-08-19T23:12:07;1.00;;;0.23;;
20792;SDS011;10556;-33.662;151.094;2022-08-19T23:17:09;1.70;;;0.40;;
20792;SDS011;10556;-33.662;151.094;2022-08-19T23:22:12;2.67;;;0.40;;
20792;SDS011;10556;-33.662;151.094;2022-08-19T23:27:15;1.67;;;0.30;;
20792;SDS011;10556;-33.662;151.094;2022-08-19T23:32:16;1.73;;;0.43;;
20792;SDS011;10556;-33.662;151.094;2022-08-19T23:37:20;2.13;;;0.50;;
20792;SDS011;10556;-33.662;151.094;2022-08-19T23:42:21;2.13;;;0.40;;
20792;SDS011;10556;-33.662;151.094;2022-08-19T23:47:22;1.87;;;0.30;;
20792;SDS011;10556;-33.662;151.094;2022-08-19T23:52:25;2.10;;;0.40;;
20792;SDS011;10556;-33.662;151.094;2022-08-19T23:57:27;1.57;;;0.50;;
